White Stone, Virginia
Current Conditions -  °F | °C
As of 5:15 PM on Monday 20 Oct 2014 (Local Time) from KW75 Reporting Station
Clear Clear  
Wind Chill: 64°   Ceiling: Unl
Heat Index: 64°   Visibility: 10mi
Dew Point: 41°   Wind: 8mph
Humidity: 43%   Direction: 190°S
Pressure: 29.99"   Gusts: NA
Location:  37.65°N, 76.39°W
Report Text: KW75 202115Z AUTO 19007KT 10SM CLR 18/05 A2999 RMK AO1 T01760048
Loading
Personal Weather Stations






























Interactive Weather Map
Tropical Storm Tracking
New forecast layout! Learn more

10-Day Weather Forecast

Advertisements
Track Severe Weather on mobile